Time;durP1;ratioP1;P1;durP2;ratioP2;P2;SDS_P1;SDS_P2;PMS_P1;PMS_P2;Temp;Humidity;BMP_temperature;BMP_pressure;BME280_temperature;BME280_humidity;BME280_pressure;Samples;Min_cycle;Max_cycle;Signal;HPM_P1;HPM_P2
2022/07/01 00:01:46;;;;;;;18.43;13.20;;;15.60;99.90;;;;;;5042114;28;20230;-83
2022/07/01 00:04:13;;;;;;;18.67;14.00;;;15.70;99.90;;;;;;5041225;28;20332;-84
2022/07/01 00:06:40;;;;;;;19.60;13.47;;;15.60;99.90;;;;;;5046163;28;20207;-85
2022/07/01 00:09:08;;;;;;;20.20;14.13;;;15.60;99.90;;;;;;5047000;28;20192;-85
2022/07/01 00:11:35;;;;;;;20.33;14.57;;;15.60;99.90;;;;;;5052062;28;20209;-84
2022/07/01 00:14:02;;;;;;;21.90;14.63;;;15.50;99.90;;;;;;5048947;28;20221;-84
2022/07/01 00:16:29;;;;;;;21.77;14.60;;;15.50;99.90;;;;;;5047862;28;20249;-84
2022/07/01 00:18:56;;;;;;;21.73;14.53;;;15.60;99.90;;;;;;5088190;28;20217;-86
2022/07/01 00:21:23;;;;;;;24.17;14.67;;;15.60;99.90;;;;;;5053739;28;20205;-85
2022/07/01 00:23:49;;;;;;;27.67;16.63;;;15.60;99.90;;;;;;5048996;28;20279;-85
2022/07/01 00:26:16;;;;;;;27.00;17.03;;;15.60;99.90;;;;;;5043708;28;20704;-82
2022/07/01 00:28:43;;;;;;;26.27;16.90;;;15.60;99.90;;;;;;5055848;28;20226;-85
2022/07/01 00:31:10;;;;;;;29.93;16.97;;;15.50;99.90;;;;;;5031964;28;20202;-85
2022/07/01 00:33:37;;;;;;;24.70;16.77;;;15.50;99.90;;;;;;5031847;28;20214;-83
2022/07/01 00:36:03;;;;;;;28.57;18.97;;;15.50;99.90;;;;;;5032272;28;20582;-85
2022/07/01 00:38:31;;;;;;;29.90;19.67;;;15.50;99.90;;;;;;5041991;28;20204;-85
2022/07/01 00:40:58;;;;;;;32.93;20.93;;;15.50;99.90;;;;;;5042333;28;20210;-86
2022/07/01 00:43:25;;;;;;;30.17;20.17;;;15.40;99.90;;;;;;5037331;28;20303;-86
2022/07/01 00:46:12;;;;;;;32.93;20.97;;;15.40;99.90;;;;;;5062264;28;20248;-86
2022/07/01 00:48:39;;;;;;;41.43;24.10;;;15.40;99.90;;;;;;5033046;28;20252;-86
2022/07/01 00:51:08;;;;;;;41.33;24.50;;;15.30;99.90;;;;;;5034578;28;20205;-85
2022/07/01 00:53:36;;;;;;;39.57;23.07;;;15.30;99.90;;;;;;5046768;28;20209;-86
2022/07/01 00:56:03;;;;;;;46.47;26.73;;;15.30;99.90;;;;;;5042896;28;20224;-86
2022/07/01 00:58:30;;;;;;;44.27;26.20;;;15.30;99.90;;;;;;5046292;28;20217;-87
2022/07/01 01:01:00;;;;;;;46.70;25.60;;;15.30;99.90;;;;;;5038730;28;20622;-85
2022/07/01 01:03:27;;;;;;;46.50;27.23;;;15.30;99.90;;;;;;5037679;28;20233;-86
2022/07/01 01:05:56;;;;;;;48.37;28.23;;;15.30;99.90;;;;;;5031665;28;20212;-84
2022/07/01 01:08:25;;;;;;;44.97;27.03;;;15.30;99.90;;;;;;5040991;28;20219;-85
2022/07/01 01:10:53;;;;;;;47.00;27.30;;;15.30;99.90;;;;;;5040797;28;20216;-84
2022/07/01 01:13:20;;;;;;;46.30;25.30;;;15.30;99.90;;;;;;5029915;28;20256;-86
2022/07/01 01:15:47;;;;;;;42.93;25.50;;;15.30;99.90;;;;;;5028791;28;20237;-85
2022/07/01 01:18:14;;;;;;;41.70;24.03;;;15.30;99.90;;;;;;5028634;28;20318;-86
2022/07/01 01:20:40;;;;;;;40.03;22.87;;;15.30;99.90;;;;;;5029710;28;20271;-86
2022/07/01 01:23:07;;;;;;;44.87;26.20;;;15.20;99.90;;;;;;5030394;28;20713;-86
2022/07/01 01:25:34;;;;;;;42.13;25.20;;;15.20;99.90;;;;;;5029443;28;20573;-86
2022/07/01 01:28:02;;;;;;;40.90;25.30;;;15.30;99.90;;;;;;5030828;28;20257;-86
2022/07/01 01:30:29;;;;;;;41.57;24.80;;;15.40;99.90;;;;;;5029430;28;20264;-85
2022/07/01 01:32:56;;;;;;;42.73;24.60;;;15.40;99.90;;;;;;5032718;28;20281;-86
2022/07/01 01:35:23;;;;;;;42.83;25.40;;;15.40;99.90;;;;;;5037492;28;20674;-83
2022/07/01 01:37:51;;;;;;;45.10;27.03;;;15.40;99.90;;;;;;5037598;28;20213;-83
2022/07/01 01:40:18;;;;;;;40.10;24.63;;;15.30;99.90;;;;;;5040651;28;21033;-84
2022/07/01 01:42:46;;;;;;;38.43;23.03;;;15.30;99.90;;;;;;5047349;28;20236;-87
2022/07/01 01:45:13;;;;;;;39.97;26.23;;;15.20;99.90;;;;;;5040859;28;20200;-84
2022/07/01 01:47:40;;;;;;;42.90;27.03;;;15.20;99.90;;;;;;5041151;28;20213;-84
2022/07/01 01:50:14;;;;;;;44.70;27.73;;;15.20;99.90;;;;;;5040827;28;20206;-86
2022/07/01 01:52:43;;;;;;;44.47;27.17;;;15.20;99.90;;;;;;5033381;28;20259;-84
2022/07/01 01:55:10;;;;;;;47.93;28.17;;;15.20;99.90;;;;;;5033511;28;20264;-86
2022/07/01 01:57:37;;;;;;;47.57;29.37;;;15.30;99.90;;;;;;5034439;28;20673;-86
2022/07/01 02:00:07;;;;;;;43.17;26.87;;;15.20;99.90;;;;;;5034194;28;20209;-84
2022/07/01 02:02:36;;;;;;;44.10;27.70;;;15.20;99.90;;;;;;5048458;28;20214;-82
2022/07/01 02:05:06;;;;;;;45.53;28.30;;;15.20;99.90;;;;;;5038034;28;20285;-86
2022/07/01 02:07:32;;;;;;;49.53;30.10;;;15.20;99.90;;;;;;5041465;28;20193;-86
2022/07/01 02:09:59;;;;;;;48.93;29.13;;;15.10;99.90;;;;;;5036830;28;20194;-85
2022/07/01 02:12:26;;;;;;;48.20;29.47;;;15.20;99.90;;;;;;5049835;28;20262;-82
2022/07/01 02:14:53;;;;;;;53.80;31.43;;;15.30;99.90;;;;;;5044635;28;20232;-80
2022/07/01 02:17:20;;;;;;;53.90;32.60;;;15.30;99.90;;;;;;5044984;28;20228;-86
2022/07/01 02:19:46;;;;;;;53.53;31.70;;;15.30;99.90;;;;;;5046882;28;20214;-86
2022/07/01 02:22:13;;;;;;;50.10;31.27;;;15.30;99.90;;;;;;5043788;28;20222;-86
2022/07/01 02:24:40;;;;;;;55.13;32.47;;;15.30;99.90;;;;;;5050133;28;20224;-84
2022/07/01 02:27:07;;;;;;;52.30;31.60;;;15.30;99.90;;;;;;5043785;28;20521;-84
2022/07/01 02:29:34;;;;;;;52.40;30.33;;;15.20;99.90;;;;;;5048205;28;20278;-84
2022/07/01 02:32:01;;;;;;;58.07;32.87;;;15.20;99.90;;;;;;5041474;28;20206;-83
2022/07/01 02:34:28;;;;;;;53.33;31.70;;;15.20;99.90;;;;;;5039216;28;20240;-84
2022/07/01 02:36:55;;;;;;;55.43;32.57;;;15.20;99.90;;;;;;5044927;28;20201;-84
2022/07/01 02:39:22;;;;;;;59.47;31.33;;;15.20;99.90;;;;;;5072255;28;20213;-85
2022/07/01 02:44:35;;;;;;;56.40;32.70;;;15.10;99.90;;;;;;5041781;28;20258;-84
2022/07/01 02:47:02;;;;;;;60.70;32.97;;;15.00;99.90;;;;;;5076654;28;20210;-86
2022/07/01 02:49:29;;;;;;;53.70;31.53;;;15.00;99.90;;;;;;5041423;28;20728;-85
2022/07/01 02:51:56;;;;;;;58.53;31.93;;;15.00;99.90;;;;;;5042072;28;20201;-85
2022/07/01 02:54:23;;;;;;;60.63;33.00;;;15.00;99.90;;;;;;5032169;28;20214;-81
2022/07/01 02:56:49;;;;;;;57.80;32.60;;;14.90;99.90;;;;;;5044312;28;20240;-83
2022/07/01 02:59:16;;;;;;;62.93;34.67;;;14.90;99.90;;;;;;5045959;28;20210;-85
2022/07/01 03:01:43;;;;;;;67.67;36.53;;;14.80;99.90;;;;;;5042788;28;20205;-84
2022/07/01 03:04:10;;;;;;;70.07;36.63;;;14.80;99.90;;;;;;5037407;28;20701;-84
2022/07/01 03:06:37;;;;;;;68.67;35.77;;;14.70;99.90;;;;;;5029922;28;20206;-80
2022/07/01 03:09:03;;;;;;;60.37;33.60;;;14.80;99.90;;;;;;5028960;28;20553;-82
2022/07/01 03:11:30;;;;;;;64.90;35.20;;;14.70;99.90;;;;;;5029718;28;20607;-84
2022/07/01 03:13:57;;;;;;;62.20;33.93;;;14.70;99.90;;;;;;5061572;28;20289;-83
2022/07/01 03:16:23;;;;;;;62.77;35.13;;;14.70;99.90;;;;;;5030029;28;20307;-84
2022/07/01 03:18:50;;;;;;;59.57;35.07;;;14.60;99.90;;;;;;5033564;28;20893;-83
2022/07/01 03:21:17;;;;;;;57.93;32.40;;;14.70;99.90;;;;;;5040700;28;20209;-85
2022/07/01 03:23:44;;;;;;;54.87;32.10;;;14.70;99.90;;;;;;5039658;28;20338;-85
2022/07/01 03:26:10;;;;;;;59.07;32.73;;;14.70;99.90;;;;;;5040075;28;20209;-84
2022/07/01 03:28:37;;;;;;;61.17;33.37;;;14.70;99.90;;;;;;5040626;28;20267;-84
2022/07/01 03:31:04;;;;;;;64.53;34.77;;;14.60;99.90;;;;;;5039661;28;20272;-82
2022/07/01 03:33:31;;;;;;;61.07;33.63;;;14.60;99.90;;;;;;5039281;28;20288;-84
2022/07/01 03:35:59;;;;;;;59.37;33.93;;;14.70;99.90;;;;;;5037835;28;20316;-84
2022/07/01 03:38:25;;;;;;;62.30;34.03;;;14.60;99.90;;;;;;5034417;28;20335;-82
2022/07/01 03:40:52;;;;;;;65.10;35.27;;;14.60;99.90;;;;;;5038059;28;20963;-86
2022/07/01 03:43:19;;;;;;;63.43;34.63;;;14.60;99.90;;;;;;5039232;28;20261;-84
2022/07/01 03:45:47;;;;;;;65.87;36.30;;;14.60;99.90;;;;;;5035317;28;20204;-84
2022/07/01 03:48:16;;;;;;;60.10;33.33;;;14.70;99.90;;;;;;5037547;28;20217;-83
2022/07/01 03:50:43;;;;;;;71.03;36.07;;;14.70;99.90;;;;;;5037344;28;20206;-83
2022/07/01 03:55:55;;;;;;;61.70;34.30;;;14.60;99.90;;;;;;5037528;28;20205;-83
2022/07/01 03:58:21;;;;;;;61.33;33.67;;;14.50;99.90;;;;;;5043359;28;20321;-83
2022/07/01 04:00:48;;;;;;;57.30;33.10;;;14.50;99.90;;;;;;5041753;28;20201;-82
2022/07/01 04:03:15;;;;;;;64.10;35.87;;;14.50;99.90;;;;;;5040804;28;20745;-82
2022/07/01 04:05:42;;;;;;;62.27;35.23;;;14.50;99.90;;;;;;5034920;28;20206;-85
2022/07/01 04:08:10;;;;;;;61.13;33.37;;;14.50;99.90;;;;;;5037709;28;20697;-83
2022/07/01 04:10:38;;;;;;;60.53;33.03;;;14.50;99.90;;;;;;5038866;28;20296;-80
2022/07/01 04:13:05;;;;;;;62.53;35.10;;;14.60;99.90;;;;;;5040798;28;20239;-81
2022/07/01 04:15:52;;;;;;;56.63;31.63;;;14.70;99.90;;;;;;5034859;28;20297;-83
2022/07/01 04:18:19;;;;;;;65.97;35.50;;;14.70;99.90;;;;;;5039781;28;20334;-84
2022/07/01 04:22:32;;;;;;;62.83;34.93;;;14.70;99.90;;;;;;5050686;28;20201;-82
2022/07/01 04:23:33;;;;;;;63.07;34.10;;;14.80;99.90;;;;;;5038192;28;20241;-83
2022/07/01 04:26:00;;;;;;;67.87;35.33;;;14.80;99.90;;;;;;5033771;28;20224;-84
2022/07/01 04:28:47;;;;;;;58.17;33.73;;;14.90;99.90;;;;;;5037757;28;20306;-83
2022/07/01 04:31:14;;;;;;;64.93;34.33;;;14.80;99.90;;;;;;5034542;28;20206;-83
2022/07/01 04:33:41;;;;;;;59.23;34.37;;;15.00;99.90;;;;;;5038905;28;20258;-83
2022/07/01 04:36:08;;;;;;;60.30;34.17;;;15.00;99.90;;;;;;5032576;28;20209;-84
2022/07/01 04:38:35;;;;;;;61.23;35.23;;;15.00;99.90;;;;;;5036225;28;20283;-81
2022/07/01 04:43:47;;;;;;;53.27;30.70;;;15.00;99.90;;;;;;5026944;28;20755;-83
2022/07/01 04:46:13;;;;;;;57.97;33.40;;;15.00;99.90;;;;;;5027793;28;20198;-83
2022/07/01 04:48:40;;;;;;;61.43;33.07;;;15.00;99.90;;;;;;5028135;28;20258;-83
2022/07/01 04:51:07;;;;;;;54.80;32.50;;;15.00;99.90;;;;;;5028263;28;20784;-83
2022/07/01 04:53:34;;;;;;;60.70;32.80;;;15.00;99.90;;;;;;5027708;28;20218;-83
2022/07/01 04:56:01;;;;;;;58.40;33.43;;;15.00;99.90;;;;;;5032149;28;20202;-84
2022/07/01 04:58:27;;;;;;;61.60;34.53;;;15.00;99.90;;;;;;5035923;28;20209;-83
2022/07/01 05:00:54;;;;;;;56.20;34.00;;;15.10;99.90;;;;;;5039919;28;20197;-82
2022/07/01 05:03:21;;;;;;;55.97;32.67;;;15.10;99.90;;;;;;5035782;28;20234;-82
2022/07/01 05:05:48;;;;;;;57.90;33.50;;;15.10;99.90;;;;;;5035869;28;20205;-83
2022/07/01 05:08:15;;;;;;;58.30;33.37;;;15.20;99.90;;;;;;5039345;28;20230;-83
2022/07/01 05:10:42;;;;;;;59.17;32.50;;;15.20;99.90;;;;;;5037696;28;20718;-83
2022/07/01 05:13:09;;;;;;;57.83;33.27;;;15.20;99.90;;;;;;5036059;28;20213;-81
2022/07/01 05:15:36;;;;;;;55.17;32.03;;;15.20;99.90;;;;;;5036267;28;20766;-78
2022/07/01 05:23:36;;;;;;;51.83;29.23;;;15.10;99.90;;;;;;5035380;28;20233;-82
2022/07/01 05:26:04;;;;;;;56.13;31.70;;;15.20;99.90;;;;;;5036547;28;20206;-83
2022/07/01 05:28:31;;;;;;;56.53;31.97;;;15.20;99.90;;;;;;5036968;28;20260;-83
2022/07/01 05:30:58;;;;;;;51.10;29.10;;;15.20;99.90;;;;;;5039486;28;20205;-82
2022/07/01 05:33:26;;;;;;;50.57;30.67;;;15.10;99.90;;;;;;5039897;28;20643;-83
2022/07/01 05:35:53;;;;;;;54.30;30.13;;;15.10;99.90;;;;;;5034534;28;20214;-81
2022/07/01 05:38:21;;;;;;;52.67;30.07;;;15.00;99.90;;;;;;5035983;28;20221;-81
2022/07/01 05:40:48;;;;;;;49.17;28.67;;;15.10;99.90;;;;;;5034890;28;20263;-80
2022/07/01 05:43:15;;;;;;;51.90;29.43;;;15.00;99.90;;;;;;5032786;28;20235;-82
2022/07/01 05:45:41;;;;;;;55.00;29.83;;;15.10;99.90;;;;;;5034159;28;20232;-81
2022/07/01 05:48:08;;;;;;;52.80;29.57;;;15.10;99.90;;;;;;5038727;28;20263;-82
2022/07/01 05:50:35;;;;;;;46.37;27.80;;;15.10;99.90;;;;;;5029816;28;20201;-81
2022/07/01 05:53:02;;;;;;;51.47;28.67;;;15.10;99.90;;;;;;5033903;28;20561;-82
2022/07/01 05:55:29;;;;;;;44.50;27.07;;;15.20;99.90;;;;;;5037612;28;20209;-82
2022/07/01 05:57:56;;;;;;;51.37;28.07;;;15.20;99.90;;;;;;5032806;28;20260;-81
2022/07/01 06:00:23;;;;;;;46.47;27.53;;;15.30;99.90;;;;;;5039474;28;20205;-81
2022/07/01 06:02:50;;;;;;;45.20;27.00;;;15.40;99.90;;;;;;5043618;28;20213;-79
2022/07/01 06:05:16;;;;;;;43.23;26.37;;;15.40;99.90;;;;;;5034763;28;20325;-78
2022/07/01 06:07:43;;;;;;;44.70;26.87;;;15.50;99.90;;;;;;5036083;28;20216;-81
2022/07/01 06:10:10;;;;;;;46.80;27.40;;;15.60;99.90;;;;;;5041393;28;20712;-79
2022/07/01 06:12:40;;;;;;;45.40;25.87;;;15.50;99.90;;;;;;5041176;28;20209;-82
2022/07/01 06:15:09;;;;;;;41.57;24.63;;;15.60;99.90;;;;;;5036020;28;20210;-80
2022/07/01 06:17:37;;;;;;;41.07;25.77;;;15.70;99.90;;;;;;5042204;28;20851;-80
2022/07/01 06:20:04;;;;;;;38.53;24.53;;;15.80;99.90;;;;;;5038045;28;20244;-81
2022/07/01 06:22:32;;;;;;;40.77;24.90;;;15.90;99.90;;;;;;5031938;28;20669;-82
2022/07/01 06:25:00;;;;;;;42.47;26.10;;;15.80;99.90;;;;;;5034265;28;20260;-81
2022/07/01 06:27:27;;;;;;;42.03;25.27;;;15.80;99.90;;;;;;5026083;28;20209;-81
2022/07/01 06:29:54;;;;;;;43.50;25.43;;;15.80;99.90;;;;;;5035950;28;20206;-80
2022/07/01 06:32:21;;;;;;;47.07;27.20;;;15.80;99.90;;;;;;5044039;28;20303;-80
2022/07/01 06:34:52;;;;;;;41.10;24.73;;;15.80;99.90;;;;;;5034403;28;20210;-80
2022/07/01 06:37:20;;;;;;;41.03;25.03;;;15.90;99.90;;;;;;5035744;28;20198;-80
2022/07/01 06:39:47;;;;;;;41.50;24.67;;;15.90;99.90;;;;;;5034089;28;20246;-80
2022/07/01 06:42:14;;;;;;;42.73;25.50;;;16.00;99.90;;;;;;5038175;28;20210;-80
2022/07/01 06:44:41;;;;;;;39.27;24.30;;;16.10;99.90;;;;;;5037333;28;20321;-80
2022/07/01 06:47:08;;;;;;;40.13;24.67;;;16.30;99.90;;;;;;5042128;28;20288;-79
2022/07/01 06:49:35;;;;;;;40.47;24.83;;;16.30;99.90;;;;;;5071690;28;20270;-78
2022/07/01 06:52:02;;;;;;;41.97;25.43;;;16.40;99.90;;;;;;5039216;28;20209;-79
2022/07/01 06:54:29;;;;;;;39.87;24.60;;;16.40;99.90;;;;;;5036182;28;20276;-78
2022/07/01 06:56:56;;;;;;;36.40;23.97;;;16.60;99.90;;;;;;5039832;28;20342;-80
2022/07/01 06:59:23;;;;;;;36.53;23.63;;;16.80;99.90;;;;;;5036589;28;20209;-81
2022/07/01 07:01:49;;;;;;;35.38;22.77;;;16.90;99.90;;;;;;5040954;28;20237;-81
2022/07/01 07:04:16;;;;;;;32.75;21.83;;;17.00;99.90;;;;;;5039868;28;20341;-81
2022/07/01 07:06:53;;;;;;;36.15;22.48;;;17.10;99.90;;;;;;5041027;28;20212;-80
2022/07/01 07:09:19;;;;;;;32.00;21.30;;;17.00;99.90;;;;;;5037885;28;20257;-77
2022/07/01 07:11:46;;;;;;;36.05;22.23;;;17.10;99.90;;;;;;5039691;28;20270;-79
2022/07/01 07:14:13;;;;;;;33.53;22.17;;;17.10;99.90;;;;;;5039243;28;20283;-80
2022/07/01 07:16:40;;;;;;;29.63;20.45;;;17.20;99.90;;;;;;5037765;28;20782;-79
2022/07/01 07:19:07;;;;;;;28.45;20.38;;;17.30;99.90;;;;;;5038889;28;20223;-79
2022/07/01 07:21:34;;;;;;;32.05;20.85;;;17.20;99.90;;;;;;5035927;28;20209;-81
2022/07/01 07:24:02;;;;;;;30.10;19.83;;;17.40;99.90;;;;;;5039760;28;20301;-80
2022/07/01 07:26:29;;;;;;;28.02;18.70;;;17.50;99.90;;;;;;5038330;28;20248;-81
2022/07/01 07:28:55;;;;;;;27.25;18.40;;;17.60;99.90;;;;;;5037897;28;20657;-81
2022/07/01 07:31:22;;;;;;;24.95;17.67;;;17.70;99.90;;;;;;5038983;28;20255;-81
2022/07/01 07:33:49;;;;;;;26.88;18.17;;;17.90;99.90;;;;;;5039933;28;20202;-79
2022/07/01 07:36:16;;;;;;;25.50;17.83;;;18.00;99.90;;;;;;5036593;28;20314;-81
2022/07/01 07:38:43;;;;;;;27.15;18.33;;;18.00;99.90;;;;;;5040466;28;20214;-80
2022/07/01 07:41:10;;;;;;;22.77;17.23;;;18.10;99.90;;;;;;5037277;28;20210;-80
2022/07/01 07:43:36;;;;;;;27.98;17.95;;;18.10;99.90;;;;;;5038150;28;20197;-80
2022/07/01 07:46:04;;;;;;;30.92;17.65;;;18.10;99.90;;;;;;5039633;28;20259;-82
2022/07/01 07:48:32;;;;;;;20.58;15.07;;;18.40;99.90;;;;;;5036605;28;20267;-82
2022/07/01 07:50:58;;;;;;;18.88;13.10;;;19.20;99.90;;;;;;5036908;28;20213;-80
2022/07/01 07:53:25;;;;;;;21.73;14.07;;;20.30;99.90;;;;;;5039044;28;20311;-80
2022/07/01 07:55:52;;;;;;;19.45;12.82;;;20.70;99.90;;;;;;5037385;28;20299;-80
2022/07/01 07:58:19;;;;;;;18.42;13.13;;;21.50;99.90;;;;;;5037525;28;20205;-81
2022/07/01 08:00:46;;;;;;;18.23;12.15;;;21.90;99.90;;;;;;5039240;28;20235;-78
2022/07/01 08:03:12;;;;;;;15.27;11.85;;;22.00;99.90;;;;;;5040581;28;20231;-79
2022/07/01 08:05:39;;;;;;;19.52;12.57;;;22.00;99.90;;;;;;5036111;28;20311;-81
2022/07/01 08:08:06;;;;;;;14.98;11.63;;;21.80;99.90;;;;;;5039161;28;20252;-80
2022/07/01 08:10:33;;;;;;;13.85;10.82;;;21.50;99.90;;;;;;5040945;28;20201;-80
2022/07/01 08:13:04;;;;;;;17.75;11.25;;;21.40;99.90;;;;;;5039129;28;20205;-81
2022/07/01 08:15:34;;;;;;;16.52;11.25;;;21.30;99.90;;;;;;5039693;28;20202;-80
2022/07/01 08:18:01;;;;;;;18.30;10.68;;;21.10;99.90;;;;;;5032543;28;20299;-87
2022/07/01 08:20:29;;;;;;;16.45;10.52;;;20.90;99.90;;;;;;5066089;28;20212;-79
2022/07/01 08:22:56;;;;;;;14.40;10.27;;;20.80;99.90;;;;;;5036171;28;20198;-81
2022/07/01 08:25:23;;;;;;;13.98;9.73;;;20.90;99.90;;;;;;5048069;28;20231;-83
2022/07/01 08:27:49;;;;;;;16.55;9.95;;;20.90;99.90;;;;;;5034648;28;20202;-82
2022/07/01 08:30:16;;;;;;;15.05;9.43;;;20.90;99.90;;;;;;5036892;28;20296;-83
2022/07/01 08:32:44;;;;;;;12.73;8.20;;;20.80;99.90;;;;;;5033981;28;20708;-79
2022/07/01 08:35:14;;;;;;;11.88;7.53;;;20.60;99.90;;;;;;5039252;28;20213;-83
2022/07/01 08:37:41;;;;;;;13.15;7.05;;;20.40;99.90;;;;;;5037757;28;20198;-81
2022/07/01 08:40:08;;;;;;;13.00;6.90;;;20.20;99.90;;;;;;5039948;28;20221;-82
2022/07/01 08:42:35;;;;;;;11.60;6.20;;;20.10;99.90;;;;;;5033387;28;20201;-81
2022/07/01 08:45:05;;;;;;;8.65;5.45;;;20.40;99.90;;;;;;5038051;28;20229;-82
2022/07/01 08:47:32;;;;;;;9.35;5.53;;;20.80;99.90;;;;;;5037302;28;20208;-84
2022/07/01 08:50:01;;;;;;;8.43;5.15;;;21.50;99.90;;;;;;5043186;28;20204;-84
2022/07/01 08:52:43;;;;;;;9.13;5.30;;;22.20;99.90;;;;;;5036922;28;20332;-85
2022/07/01 08:55:10;;;;;;;9.60;5.10;;;23.00;99.90;;;;;;5045481;28;20229;-81
2022/07/01 08:57:37;;;;;;;9.95;4.55;;;23.70;99.90;;;;;;5036665;28;20209;-81
2022/07/01 09:00:07;;;;;;;7.18;4.40;;;23.80;99.90;;;;;;5038326;28;20213;-81
2022/07/01 09:02:56;;;;;;;6.28;3.67;;;23.60;99.90;;;;;;5046435;28;20202;-85
2022/07/01 09:05:25;;;;;;;7.75;3.90;;;23.70;99.90;;;;;;5038716;28;20245;-82
2022/07/01 09:08:00;;;;;;;5.40;3.40;;;24.10;99.90;;;;;;5044984;28;20267;-80
2022/07/01 09:10:33;;;;;;;7.60;3.70;;;24.40;99.90;;;;;;5041803;28;20212;-83
2022/07/01 09:13:05;;;;;;;6.63;2.85;;;24.50;99.90;;;;;;5069265;28;20216;-82
2022/07/01 09:15:32;;;;;;;6.15;2.50;;;24.60;99.90;;;;;;5035806;28;20606;-84
2022/07/01 09:18:11;;;;;;;13.10;2.90;;;24.40;99.90;;;;;;5043726;28;20594;-85
2022/07/01 09:20:41;;;;;;;3.85;2.00;;;24.00;99.90;;;;;;5034265;28;20205;-81
2022/07/01 09:23:13;;;;;;;5.32;1.90;;;23.50;99.90;;;;;;5037117;28;20228;-82
2022/07/01 09:25:49;;;;;;;5.45;2.08;;;23.30;99.90;;;;;;5039618;28;20634;-83
2022/07/01 09:28:24;;;;;;;5.20;2.10;;;23.20;99.90;;;;;;5037781;28;20241;-81
2022/07/01 09:30:59;;;;;;;8.88;2.17;;;23.50;99.90;;;;;;5035745;28;20566;-84
2022/07/01 09:33:29;;;;;;;5.32;2.10;;;23.90;99.90;;;;;;5035395;28;20193;-81
2022/07/01 09:35:57;;;;;;;6.75;2.28;;;23.90;99.90;;;;;;5032446;28;20217;-79
2022/07/01 09:38:25;;;;;;;7.22;2.10;;;23.80;99.90;;;;;;5035852;28;20720;-80
2022/07/01 09:41:03;;;;;;;4.25;1.70;;;23.60;99.90;;;;;;5035826;28;20296;-80
2022/07/01 09:43:33;;;;;;;7.65;1.80;;;23.50;99.90;;;;;;5038181;28;20205;-83
2022/07/01 09:46:07;;;;;;;5.88;1.85;;;23.30;99.90;;;;;;5031056;28;20218;-82
2022/07/01 09:48:34;;;;;;;7.63;1.90;;;23.20;99.90;;;;;;5033978;28;20213;-81
2022/07/01 09:51:02;;;;;;;4.95;1.85;;;23.20;99.90;;;;;;5036034;28;20213;-83
2022/07/01 09:53:29;;;;;;;5.38;1.50;;;23.10;99.90;;;;;;5030914;28;20228;-80
2022/07/01 09:55:56;;;;;;;5.60;2.03;;;23.10;99.90;;;;;;5037519;28;20263;-83
2022/07/01 09:58:24;;;;;;;4.25;1.38;;;23.00;99.90;;;;;;5031567;28;20194;-79
2022/07/01 10:00:53;;;;;;;6.47;1.30;;;23.00;99.90;;;;;;5038898;28;20208;-85
2022/07/01 10:03:21;;;;;;;2.58;1.10;;;23.10;99.90;;;;;;5041277;28;20235;-85
2022/07/01 10:05:56;;;;;;;2.97;1.25;;;23.10;99.90;;;;;;5042617;28;20267;-82
2022/07/01 10:09:16;;;;;;;4.20;1.48;;;23.40;99.90;;;;;;5040716;28;20286;-81
2022/07/01 10:11:42;;;;;;;2.92;1.20;;;23.60;99.90;;;;;;5039970;28;20221;-80
2022/07/01 10:14:12;;;;;;;3.50;1.35;;;23.70;99.90;;;;;;5028616;28;20206;-82
2022/07/01 10:16:39;;;;;;;4.30;1.63;;;23.90;99.90;;;;;;5038664;28;20305;-83
2022/07/01 10:19:25;;;;;;;6.97;1.40;;;24.00;99.90;;;;;;5046948;28;20198;-82
2022/07/01 10:21:56;;;;;;;5.78;1.38;;;23.90;99.90;;;;;;5041785;28;20700;-83
2022/07/01 10:24:25;;;;;;;2.30;1.20;;;23.90;99.90;;;;;;5042272;28;20221;-83
2022/07/01 10:26:58;;;;;;;3.53;1.30;;;24.10;99.90;;;;;;5037851;28;20267;-82
2022/07/01 10:29:30;;;;;;;4.00;1.30;;;24.20;99.90;;;;;;5041445;28;20233;-82
2022/07/01 10:32:08;;;;;;;2.22;1.08;;;24.20;99.90;;;;;;5039481;28;20206;-81
2022/07/01 10:34:40;;;;;;;2.30;0.90;;;24.30;99.90;;;;;;5038083;28;20205;-82
2022/07/01 10:37:11;;;;;;;2.97;1.20;;;24.50;99.90;;;;;;5038571;28;20240;-81
2022/07/01 10:39:57;;;;;;;4.22;1.38;;;24.60;99.90;;;;;;5034376;28;20678;-83
2022/07/01 10:42:33;;;;;;;2.38;1.05;;;24.40;99.90;;;;;;5038977;28;20662;-83
2022/07/01 10:45:06;;;;;;;1.55;0.90;;;24.30;99.90;;;;;;5052262;28;20289;-82
2022/07/01 10:47:33;;;;;;;5.78;1.35;;;24.30;99.90;;;;;;5052952;28;20596;-81
2022/07/01 10:50:05;;;;;;;3.67;1.33;;;24.20;99.90;;;;;;5051724;28;20814;-81
2022/07/01 10:52:33;;;;;;;1.70;0.95;;;24.00;99.90;;;;;;5064829;28;20200;-82
2022/07/01 10:55:02;;;;;;;3.75;1.25;;;23.90;99.90;;;;;;5052909;28;20614;-81
2022/07/01 10:57:37;;;;;;;3.40;0.90;;;24.10;99.90;;;;;;5051504;28;20258;-82
2022/07/01 11:00:03;;;;;;;3.95;1.40;;;24.20;99.90;;;;;;5047947;28;20258;-82
2022/07/01 11:02:36;;;;;;;1.77;1.13;;;24.10;99.90;;;;;;5046838;28;20217;-81
2022/07/01 11:05:07;;;;;;;2.05;0.80;;;24.30;99.90;;;;;;5046950;28;20224;-81
2022/07/01 11:07:36;;;;;;;2.33;0.90;;;24.30;99.90;;;;;;5053432;28;20305;-83
2022/07/01 11:10:06;;;;;;;2.45;0.70;;;24.10;99.80;;;;;;5050140;28;20256;-84
2022/07/01 11:12:33;;;;;;;1.77;0.52;;;24.30;99.90;;;;;;5052150;28;20677;-81
2022/07/01 11:15:02;;;;;;;2.42;1.08;;;24.30;98.60;;;;;;5047065;28;20217;-85
2022/07/01 11:17:29;;;;;;;3.75;1.20;;;24.20;97.30;;;;;;5044194;28;20638;-86
2022/07/01 11:19:58;;;;;;;1.90;0.80;;;24.10;97.40;;;;;;5049969;28;20674;-82
2022/07/01 11:22:28;;;;;;;3.10;1.15;;;24.00;97.80;;;;;;5046702;28;20682;-85
2022/07/01 11:25:06;;;;;;;2.55;0.95;;;23.90;97.40;;;;;;5044317;28;20237;-84
2022/07/01 11:27:34;;;;;;;1.65;1.20;;;23.90;97.80;;;;;;5037670;28;20216;-85
2022/07/01 11:30:14;;;;;;;3.88;1.10;;;23.90;98.30;;;;;;5052418;28;20194;-84
2022/07/01 11:32:53;;;;;;;3.33;0.90;;;24.10;98.30;;;;;;5044258;28;20220;-87
2022/07/01 11:41:27;;;;;;;3.17;0.65;;;24.20;97.40;;;;;;5048346;28;20209;-85
2022/07/01 11:43:54;;;;;;;1.55;0.70;;;24.30;95.30;;;;;;5041871;28;20237;-81
2022/07/01 11:46:21;;;;;;;4.47;1.00;;;24.20;95.90;;;;;;5038770;28;20232;-85
2022/07/01 11:48:53;;;;;;;2.78;0.90;;;24.30;96.10;;;;;;5049023;28;20254;-83
2022/07/01 11:51:34;;;;;;;1.95;0.88;;;24.30;95.50;;;;;;5048905;28;20208;-87
2022/07/01 11:54:01;;;;;;;1.20;0.65;;;24.20;94.50;;;;;;5044561;28;20658;-86
2022/07/01 11:56:31;;;;;;;3.53;1.00;;;24.10;95.20;;;;;;5055875;28;21020;-84
2022/07/01 11:59:01;;;;;;;4.18;0.95;;;23.90;95.50;;;;;;5051206;28;20527;-82
2022/07/01 12:01:36;;;;;;;2.13;0.95;;;23.60;95.90;;;;;;5051653;28;20604;-82
2022/07/01 12:04:05;;;;;;;2.25;0.98;;;23.40;97.20;;;;;;5048956;28;20887;-84
2022/07/01 12:06:34;;;;;;;2.38;1.20;;;23.40;97.60;;;;;;5049236;28;20233;-81
2022/07/01 12:09:02;;;;;;;4.45;1.15;;;23.30;98.00;;;;;;5041775;28;20209;-82
2022/07/01 12:11:29;;;;;;;4.57;1.13;;;23.20;98.40;;;;;;5053064;28;20213;-83
2022/07/01 12:14:04;;;;;;;3.90;1.33;;;23.30;98.40;;;;;;5046053;28;20288;-86
2022/07/01 12:16:41;;;;;;;4.25;1.10;;;23.30;97.90;;;;;;5061783;28;20243;-83
2022/07/01 12:19:12;;;;;;;4.72;1.00;;;23.20;97.70;;;;;;5056108;28;20197;-89
2022/07/01 12:21:54;;;;;;;5.20;0.70;;;23.00;97.30;;;;;;5044735;28;20280;-83
2022/07/01 12:24:24;;;;;;;3.05;0.90;;;23.00;96.90;;;;;;5049321;28;20225;-87
2022/07/01 12:27:03;;;;;;;3.45;0.80;;;23.20;97.30;;;;;;5042627;28;20229;-84
2022/07/01 12:29:46;;;;;;;1.90;1.05;;;23.60;97.30;;;;;;5050405;28;20247;-82
2022/07/01 12:32:23;;;;;;;1.75;0.80;;;23.80;95.20;;;;;;5048089;28;20212;-81
2022/07/01 12:34:56;;;;;;;2.47;1.00;;;24.00;95.00;;;;;;5047372;28;20265;-85
2022/07/01 12:37:32;;;;;;;1.77;0.80;;;24.20;94.60;;;;;;5043494;28;20205;-84
2022/07/01 12:40:06;;;;;;;0.65;0.60;;;24.40;94.10;;;;;;5047008;28;20703;-83
2022/07/01 12:42:41;;;;;;;3.53;0.90;;;24.50;93.40;;;;;;5048833;28;20291;-84
2022/07/01 12:45:13;;;;;;;1.98;0.70;;;24.50;92.90;;;;;;5051073;28;20271;-83
2022/07/01 12:47:52;;;;;;;2.22;0.80;;;24.60;92.80;;;;;;5049096;28;20200;-83
2022/07/01 12:50:24;;;;;;;3.20;0.80;;;24.80;92.50;;;;;;5040275;28;20505;-83
2022/07/01 12:53:12;;;;;;;2.55;0.93;;;24.90;92.30;;;;;;5048467;28;20209;-85
2022/07/01 12:55:39;;;;;;;3.22;0.98;;;24.90;92.20;;;;;;5052950;28;20617;-83
2022/07/01 12:58:20;;;;;;;2.60;0.85;;;24.60;91.80;;;;;;5052426;28;20208;-84
2022/07/01 13:00:51;;;;;;;1.33;0.80;;;24.40;92.80;;;;;;5056310;28;20204;-83
2022/07/01 13:03:21;;;;;;;2.65;0.75;;;24.50;92.80;;;;;;5043002;28;20220;-84